Terminal Aerodrome Forecast
Issued by NWS

Current Version | Previous Version | Graphics & Text | Print | Product List | Glossary On
Versions: 1 2 3 4 5 6 7 8 9 10 11 12 13 14 15 16 17 18 19
000
FTUS41 KPBZ 282300
TAFMGW
TAF
KMGW 282321Z 2900/2924 32008KT P6SM BKN060
     FM290900 VRB03KT 3SM BR SCT060
     FM291400 30012KT P6SM SCT050=

USA.gov is the U.S. government's official web portal to all federal, state and local government web resources and services.